Time;durP1;ratioP1;P1;durP2;ratioP2;P2;SDS_P1;SDS_P2;PMS_P1;PMS_P2;Temp;Humidity;BMP_temperature;BMP_pressure;BME280_temperature;BME280_humidity;BME280_pressure;Samples;Min_cycle;Max_cycle;Signal;HPM_P1;HPM_P2
2023/11/27 00:00:54;;;;;;;;;;;;;;;;;;5046812;28;19983;-78
2023/11/27 00:03:20;;;;;;;;;;;;;;;;;;5045219;28;19963;-76
2023/11/27 00:05:47;;;;;;;;;;;;;;;;;;5044106;28;19925;-78
2023/11/27 00:08:14;;;;;;;;;;;;;;;;;;5051608;28;20105;-77
2023/11/27 00:10:40;;;;;;;;;;;;;;;;;;5042664;28;19939;-75
2023/11/27 00:13:07;;;;;;;;;;;;;;;;;;5040950;28;20311;-78
2023/11/27 00:15:34;;;;;;;;;;;;;;;;;;5045660;28;19979;-77
2023/11/27 00:18:00;;;;;;;;;;;;;;;;;;5045919;28;20021;-77
2023/11/27 00:20:26;;;;;;;;;;;;;;;;;;5042855;28;19929;-78
2023/11/27 00:22:53;;;;;;;;;;;;;;;;;;5048458;28;19933;-76
2023/11/27 00:25:20;;;;;;;;;;;;;;;;;;5052447;28;20024;-77
2023/11/27 00:27:46;;;;;;;;;;;;;;;;;;5050976;28;20368;-76
2023/11/27 00:30:13;;;;;;;;;;;;;;;;;;5044647;28;20309;-76
2023/11/27 00:32:39;;;;;;;;;;;;;;;;;;5046447;28;19925;-78
2023/11/27 00:35:06;;;;;;;;;;;;;;;;;;5048136;28;19924;-76
2023/11/27 00:37:33;;;;;;;;;;;;;;;;;;5052310;28;19925;-76
2023/11/27 00:39:59;;;;;;;;;;;;;;;;;;5044598;28;19991;-78
2023/11/27 00:42:26;;;;;;;;;;;;;;;;;;5042001;28;19929;-76
2023/11/27 00:44:53;;;;;;;;;;;;;;;;;;5044393;28;19963;-77
2023/11/27 00:47:19;;;;;;;;;;;;;;;;;;5046429;28;19940;-78
2023/11/27 00:49:46;;;;;;;;;;;;;;;;;;5035760;28;19924;-78
2023/11/27 00:52:13;;;;;;;;;;;;;;;;;;5043544;28;20354;-76
2023/11/27 00:54:40;;;;;;;;;;;;;;;;;;5046678;28;19963;-77
2023/11/27 00:57:06;;;;;;;;;;;;;;;;;;5044402;28;19925;-78
2023/11/27 00:59:38;;;;;;;;;;;;;;;;;;5033781;28;19925;-78
2023/11/27 01:02:05;;;;;;;;;;;;;;;;;;5045153;28;19929;-78
2023/11/27 01:04:31;;;;;;;;;;;;;;;;;;5051103;28;19961;-78
2023/11/27 01:06:59;;;;;;;;;;;;;;;;;;5042651;28;20278;-76
2023/11/27 01:09:26;;;;;;;;;;;;;;;;;;5051589;28;20412;-77
2023/11/27 01:11:53;;;;;;;;;;;;;;;;;;5043510;28;19929;-77
2023/11/27 01:14:19;;;;;;;;;;;;;;;;;;5050417;28;19932;-77
2023/11/27 01:16:46;;;;;;;;;;;;;;;;;;5043529;28;19925;-77
2023/11/27 01:19:12;;;;;;;;;;;;;;;;;;5043333;28;19929;-80
2023/11/27 01:21:39;;;;;;;;;;;;;;;;;;5052569;28;20274;-78
2023/11/27 01:24:06;;;;;;;;;;;;;;;;;;5049938;28;19936;-76
2023/11/27 01:26:33;;;;;;;;;;;;;;;;;;5044435;28;19925;-74
2023/11/27 01:28:59;;;;;;;;;;;;;;;;;;5028186;28;20016;-79
2023/11/27 01:31:26;;;;;;;;;;;;;;;;;;5052146;28;20019;-79
2023/11/27 01:33:52;;;;;;;;;;;;;;;;;;5035962;28;19940;-78
2023/11/27 01:36:19;;;;;;;;;;;;;;;;;;5031445;28;19947;-75
2023/11/27 01:38:45;;;;;;;;;;;;;;;;;;5043608;28;20310;-76
2023/11/27 01:41:12;;;;;;;;;;;;;;;;;;5042412;28;19936;-76
2023/11/27 01:43:38;;;;;;;;;;;;;;;;;;5040276;28;19968;-76
2023/11/27 01:46:04;;;;;;;;;;;;;;;;;;5048459;28;19978;-77
2023/11/27 01:48:31;;;;;;;;;;;;;;;;;;5050140;28;19925;-76
2023/11/27 01:50:58;;;;;;;;;;;;;;;;;;5049277;28;20324;-76
2023/11/27 01:53:25;;;;;;;;;;;;;;;;;;5040562;28;19933;-76
2023/11/27 01:55:51;;;;;;;;;;;;;;;;;;5050217;28;19929;-77
2023/11/27 01:58:17;;;;;;;;;;;;;;;;;;5049589;28;19925;-77
2023/11/27 02:00:44;;;;;;;;;;;;;;;;;;5039160;28;19925;-76
2023/11/27 02:03:10;;;;;;;;;;;;;;;;;;5040782;28;20393;-77
2023/11/27 02:05:38;;;;;;;;;;;;;;;;;;5039739;28;19925;-77
2023/11/27 02:08:04;;;;;;;;;;;;;;;;;;5044057;28;20010;-75
2023/11/27 02:10:31;;;;;;;;;;;;;;;;;;5048593;28;20027;-76
2023/11/27 02:12:57;;;;;;;;;;;;;;;;;;5047345;28;19925;-76
2023/11/27 02:15:23;;;;;;;;;;;;;;;;;;5049567;28;20384;-77
2023/11/27 02:17:50;;;;;;;;;;;;;;;;;;5039020;28;19924;-77
2023/11/27 02:20:16;;;;;;;;;;;;;;;;;;5048975;28;19932;-74
2023/11/27 02:22:43;;;;;;;;;;;;;;;;;;5050014;28;20389;-76
2023/11/27 02:25:09;;;;;;;;;;;;;;;;;;5047898;28;20012;-77
2023/11/27 02:27:36;;;;;;;;;;;;;;;;;;5037274;28;19975;-74
2023/11/27 02:30:02;;;;;;;;;;;;;;;;;;5037135;28;20394;-74
2023/11/27 02:32:29;;;;;;;;;;;;;;;;;;5039353;28;19926;-77
2023/11/27 02:34:55;;;;;;;;;;;;;;;;;;5048932;28;19963;-76
2023/11/27 02:37:21;;;;;;;;;;;;;;;;;;5041067;28;19971;-77
2023/11/27 02:39:48;;;;;;;;;;;;;;;;;;5048381;28;19960;-76
2023/11/27 02:42:14;;;;;;;;;;;;;;;;;;5043099;28;19929;-75
2023/11/27 02:44:40;;;;;;;;;;;;;;;;;;5040397;28;20011;-76
2023/11/27 02:47:07;;;;;;;;;;;;;;;;;;5048901;28;20028;-78
2023/11/27 02:49:33;;;;;;;;;;;;;;;;;;5040485;28;19976;-77
2023/11/27 02:52:00;;;;;;;;;;;;;;;;;;5042319;28;19964;-76
2023/11/27 02:54:26;;;;;;;;;;;;;;;;;;5027225;28;19925;-74
2023/11/27 02:56:53;;;;;;;;;;;;;;;;;;5038007;28;19983;-77
2023/11/27 02:59:20;;;;;;;;;;;;;;;;;;5042196;28;19929;-77
2023/11/27 03:01:47;;;;;;;;;;;;;;;;;;5043646;28;20316;-79
2023/11/27 03:04:13;;;;;;;;;;;;;;;;;;5048883;28;19931;-79
2023/11/27 03:06:40;;;;;;;;;;;;;;;;;;5038043;28;20312;-76
2023/11/27 03:09:10;;;;;;;;;;;;;;;;;;5041380;28;20285;-77
2023/11/27 03:11:37;;;;;;;;;;;;;;;;;;5044461;28;19952;-78
2023/11/27 03:14:03;;;;;;;;;;;;;;;;;;5032474;28;19931;-76
2023/11/27 03:16:30;;;;;;;;;;;;;;;;;;5041700;28;19929;-77
2023/11/27 03:18:57;;;;;;;;;;;;;;;;;;5036698;28;20278;-76
2023/11/27 03:21:23;;;;;;;;;;;;;;;;;;5042645;28;19961;-77
2023/11/27 03:23:49;;;;;;;;;;;;;;;;;;5042439;28;19932;-78
2023/11/27 03:26:16;;;;;;;;;;;;;;;;;;5042582;28;20016;-77
2023/11/27 03:28:43;;;;;;;;;;;;;;;;;;5040154;28;19932;-78
2023/11/27 03:31:10;;;;;;;;;;;;;;;;;;5040989;28;19986;-78
2023/11/27 03:33:36;;;;;;;;;;;;;;;;;;5043059;28;19928;-77
2023/11/27 03:36:02;;;;;;;;;;;;;;;;;;5044850;28;19925;-76
2023/11/27 03:38:30;;;;;;;;;;;;;;;;;;5037488;28;19987;-77
2023/11/27 03:40:56;;;;;;;;;;;;;;;;;;5049557;28;20143;-77
2023/11/27 03:43:26;;;;;;;;;;;;;;;;;;5057577;28;19935;-75
2023/11/27 03:45:52;;;;;;;;;;;;;;;;;;5035964;28;19939;-77
2023/11/27 03:48:19;;;;;;;;;;;;;;;;;;5039545;28;20364;-74
2023/11/27 03:50:45;;;;;;;;;;;;;;;;;;5040473;28;19936;-75
2023/11/27 03:53:11;;;;;;;;;;;;;;;;;;5048404;28;19973;-75
2023/11/27 03:55:39;;;;;;;;;;;;;;;;;;5049174;28;19939;-76
2023/11/27 03:58:05;;;;;;;;;;;;;;;;;;5039538;28;19932;-77
2023/11/27 04:00:32;;;;;;;;;;;;;;;;;;5047542;28;19925;-76
2023/11/27 04:02:58;;;;;;;;;;;;;;;;;;5042463;28;20020;-77
2023/11/27 04:05:25;;;;;;;;;;;;;;;;;;5040686;28;20019;-77
2023/11/27 04:07:51;;;;;;;;;;;;;;;;;;5049309;28;19929;-77
2023/11/27 04:10:18;;;;;;;;;;;;;;;;;;5043970;28;20305;-77
2023/11/27 04:12:45;;;;;;;;;;;;;;;;;;5048327;28;20424;-75
2023/11/27 04:15:14;;;;;;;;;;;;;;;;;;5039245;28;19932;-76
2023/11/27 04:17:40;;;;;;;;;;;;;;;;;;5040197;28;20011;-76
2023/11/27 04:20:07;;;;;;;;;;;;;;;;;;5047485;28;19933;-76
2023/11/27 04:22:33;;;;;;;;;;;;;;;;;;5044910;28;19956;-76
2023/11/27 04:24:59;;;;;;;;;;;;;;;;;;5041823;28;19932;-76
2023/11/27 04:27:26;;;;;;;;;;;;;;;;;;5040650;28;19925;-74
2023/11/27 04:29:53;;;;;;;;;;;;;;;;;;5046402;28;19925;-74
2023/11/27 04:32:21;;;;;;;;;;;;;;;;;;5050569;28;20420;-74
2023/11/27 04:34:47;;;;;;;;;;;;;;;;;;5044737;28;19925;-75
2023/11/27 04:37:14;;;;;;;;;;;;;;;;;;5026047;28;19947;-77
2023/11/27 04:39:44;;;;;;;;;;;;;;;;;;5048067;28;20023;-77
2023/11/27 04:42:10;;;;;;;;;;;;;;;;;;5045523;28;19998;-74
2023/11/27 04:44:37;;;;;;;;;;;;;;;;;;5043946;28;19936;-77
2023/11/27 04:47:03;;;;;;;;;;;;;;;;;;5044751;28;20362;-75
2023/11/27 04:49:30;;;;;;;;;;;;;;;;;;5049805;28;19977;-78
2023/11/27 04:51:56;;;;;;;;;;;;;;;;;;5043055;28;20052;-77
2023/11/27 04:54:23;;;;;;;;;;;;;;;;;;5042957;28;20282;-76
2023/11/27 04:56:49;;;;;;;;;;;;;;;;;;5041716;28;20025;-77
2023/11/27 04:59:15;;;;;;;;;;;;;;;;;;5041816;28;20041;-78
2023/11/27 05:01:42;;;;;;;;;;;;;;;;;;5027103;28;20298;-75
2023/11/27 05:04:08;;;;;;;;;;;;;;;;;;5045190;28;19979;-78
2023/11/27 05:06:35;;;;;;;;;;;;;;;;;;5049534;28;19929;-75
2023/11/27 05:09:02;;;;;;;;;;;;;;;;;;5033669;28;20031;-76
2023/11/27 05:11:29;;;;;;;;;;;;;;;;;;5056863;28;19947;-76
2023/11/27 05:13:56;;;;;;;;;;;;;;;;;;5040944;28;20043;-75
2023/11/27 05:16:22;;;;;;;;;;;;;;;;;;5051749;28;20012;-75
2023/11/27 05:18:49;;;;;;;;;;;;;;;;;;5047754;28;19925;-75
2023/11/27 05:21:16;;;;;;;;;;;;;;;;;;5051767;28;20184;-75
2023/11/27 05:23:42;;;;;;;;;;;;;;;;;;5040144;28;20409;-74
2023/11/27 05:26:09;;;;;;;;;;;;;;;;;;5045389;28;20044;-77
2023/11/27 05:28:35;;;;;;;;;;;;;;;;;;5050047;28;20008;-75
2023/11/27 05:31:02;;;;;;;;;;;;;;;;;;5049394;28;19925;-75
2023/11/27 05:33:28;;;;;;;;;;;;;;;;;;5040539;28;20377;-73
2023/11/27 05:35:55;;;;;;;;;;;;;;;;;;5050068;28;19932;-74
2023/11/27 05:38:21;;;;;;;;;;;;;;;;;;5051606;28;19932;-75
2023/11/27 05:40:48;;;;;;;;;;;;;;;;;;5049425;28;19924;-76
2023/11/27 05:43:15;;;;;;;;;;;;;;;;;;5051129;28;19935;-75
2023/11/27 05:45:41;;;;;;;;;;;;;;;;;;5049848;28;19993;-76
2023/11/27 05:48:08;;;;;;;;;;;;;;;;;;5044723;28;20282;-76
2023/11/27 05:50:41;;;;;;;;;;;;;;;;;;5051871;28;19982;-76
2023/11/27 05:53:07;;;;;;;;;;;;;;;;;;5039776;28;19929;-76
2023/11/27 05:55:33;;;;;;;;;;;;;;;;;;5039278;28;19925;-77
2023/11/27 05:58:00;;;;;;;;;;;;;;;;;;5031802;28;20386;-76
2023/11/27 06:00:26;;;;;;;;;;;;;;;;;;5041578;28;19936;-76
2023/11/27 06:02:53;;;;;;;;;;;;;;;;;;5050563;28;19929;-76
2023/11/27 06:05:19;;;;;;;;;;;;;;;;;;5042518;28;19925;-75
2023/11/27 06:07:45;;;;;;;;;;;;;;;;;;5045041;28;19929;-75
2023/11/27 06:10:12;;;;;;;;;;;;;;;;;;5041940;28;19925;-77
2023/11/27 06:12:38;;;;;;;;;;;;;;;;;;5034788;28;19929;-76
2023/11/27 06:15:05;;;;;;;;;;;;;;;;;;5041390;28;19925;-77
2023/11/27 06:17:31;;;;;;;;;;;;;;;;;;5041198;28;19956;-77
2023/11/27 06:19:57;;;;;;;;;;;;;;;;;;5032833;28;20028;-76
2023/11/27 06:22:27;;;;;;;;;;;;;;;;;;5046583;28;20003;-76
2023/11/27 06:24:54;;;;;;;;;;;;;;;;;;5045026;28;19925;-76
2023/11/27 06:27:23;;;;;;;;;;;;;;;;;;5038117;28;19951;-77
2023/11/27 06:29:49;;;;;;;;;;;;;;;;;;5043552;28;19933;-76
2023/11/27 06:32:20;;;;;;;;;;;;;;;;;;5045061;28;20162;-77
2023/11/27 06:34:46;;;;;;;;;;;;;;;;;;5049672;28;20362;-76
2023/11/27 06:37:13;;;;;;;;;;;;;;;;;;5040927;28;19929;-77
2023/11/27 06:39:39;;;;;;;;;;;;;;;;;;5046429;28;20377;-77
2023/11/27 06:42:05;;;;;;;;;;;;;;;;;;5044838;28;19924;-78
2023/11/27 06:44:32;;;;;;;;;;;;;;;;;;5043089;28;19964;-79
2023/11/27 06:46:59;;;;;;;;;;;;;;;;;;5041516;28;19968;-78
2023/11/27 06:49:26;;;;;;;;;;;;;;;;;;5039454;28;19929;-77
2023/11/27 06:51:53;;;;;;;;;;;;;;;;;;5041376;28;19929;-81
2023/11/27 06:54:19;;;;;;;;;;;;;;;;;;5050028;28;20016;-77
2023/11/27 06:56:45;;;;;;;;;;;;;;;;;;5039548;28;20355;-79
2023/11/27 06:59:12;;;;;;;;;;;;;;;;;;5049541;28;19967;-77
2023/11/27 07:01:38;;;;;;;;;;;;;;;;;;5045396;28;19935;-78
2023/11/27 07:04:05;;;;;;;;;;;;;;;;;;5043898;28;19924;-79
2023/11/27 07:06:31;;;;;;;;;;;;;;;;;;5047489;28;19933;-78
2023/11/27 07:08:59;;;;;;;;;;;;;;;;;;5039854;28;20350;-77
2023/11/27 07:11:25;;;;;;;;;;;;;;;;;;5050232;28;19936;-78
2023/11/27 07:13:52;;;;;;;;;;;;;;;;;;5046913;28;19940;-78
2023/11/27 07:16:18;;;;;;;;;;;;;;;;;;5039998;28;19940;-77
2023/11/27 07:18:48;;;;;;;;;;;;;;;;;;5045973;28;19935;-78
2023/11/27 07:21:14;;;;;;;;;;;;;;;;;;5031395;28;19932;-77
2023/11/27 07:23:41;;;;;;;;;;;;;;;;;;5038165;28;19947;-79
2023/11/27 07:26:07;;;;;;;;;;;;;;;;;;5046559;28;19929;-76
2023/11/27 07:28:34;;;;;;;;;;;;;;;;;;5048038;28;20381;-78
2023/11/27 07:31:02;;;;;;;;;;;;;;;;;;5040550;28;19925;-78
2023/11/27 07:33:28;;;;;;;;;;;;;;;;;;5042763;28;19930;-78
2023/11/27 07:35:55;;;;;;;;;;;;;;;;;;5023049;28;19992;-76
2023/11/27 07:38:21;;;;;;;;;;;;;;;;;;5040150;28;20301;-76
2023/11/27 07:40:48;;;;;;;;;;;;;;;;;;5045576;28;20011;-76
2023/11/27 07:43:14;;;;;;;;;;;;;;;;;;5031717;28;20020;-76
2023/11/27 07:45:41;;;;;;;;;;;;;;;;;;5044237;28;19936;-77
2023/11/27 07:48:07;;;;;;;;;;;;;;;;;;5041484;28;19933;-77
2023/11/27 07:50:33;;;;;;;;;;;;;;;;;;5038854;28;19932;-78
2023/11/27 07:53:00;;;;;;;;;;;;;;;;;;5029446;28;20016;-77
2023/11/27 07:55:28;;;;;;;;;;;;;;;;;;5043872;28;20032;-78
2023/11/27 07:57:54;;;;;;;;;;;;;;;;;;5052806;28;20316;-76
2023/11/27 08:00:21;;;;;;;;;;;;;;;;;;5042966;28;19929;-77
2023/11/27 08:02:51;;;;;;;;;;;;;;;;;;5046398;28;19929;-76
2023/11/27 08:05:18;;;;;;;;;;;;;;;;;;5042433;28;19936;-78
2023/11/27 08:07:45;;;;;;;;;;;;;;;;;;5048811;28;19925;-78
2023/11/27 08:10:11;;;;;;;;;;;;;;;;;;5054113;28;19929;-76
2023/11/27 08:12:38;;;;;;;;;;;;;;;;;;5046748;28;19928;-76
2023/11/27 08:15:06;;;;;;;;;;;;;;;;;;5040642;28;19925;-76
2023/11/27 08:17:33;;;;;;;;;;;;;;;;;;5047153;28;19925;-77
2023/11/27 08:20:03;;;;;;;;;;;;;;;;;;5042004;28;20408;-78
2023/11/27 08:22:30;;;;;;;;;;;;;;;;;;5044340;28;20028;-77
2023/11/27 08:24:57;;;;;;;;;;;;;;;;;;5049798;28;19925;-77
2023/11/27 08:27:26;;;;;;;;;;;;;;;;;;5043249;28;19929;-76
2023/11/27 08:29:53;;;;;;;;;;;;;;;;;;5045045;28;19925;-77
2023/11/27 08:32:19;;;;;;;;;;;;;;;;;;5044843;28;19924;-76
2023/11/27 08:34:45;;;;;;;;;;;;;;;;;;5050838;28;20015;-76
2023/11/27 08:37:16;;;;;;;;;;;;;;;;;;5042633;28;19987;-76
2023/11/27 08:39:45;;;;;;;;;;;;;;;;;;5050872;28;19925;-78
2023/11/27 08:42:12;;;;;;;;;;;;;;;;;;5048423;28;19936;-77
2023/11/27 08:44:38;;;;;;;;;;;;;;;;;;5056649;28;19971;-77
2023/11/27 08:47:07;;;;;;;;;;;;;;;;;;5045925;28;19933;-78
2023/11/27 08:49:34;;;;;;;;;;;;;;;;;;5045004;28;19925;-76
2023/11/27 08:52:00;;;;;;;;;;;;;;;;;;5046026;28;20308;-78
2023/11/27 08:54:32;;;;;;;;;;;;;;;;;;5050383;28;19929;-77
2023/11/27 08:56:59;;;;;;;;;;;;;;;;;;5040566;28;19932;-77
2023/11/27 08:59:25;;;;;;;;;;;;;;;;;;5051581;28;19937;-77
2023/11/27 09:01:51;;;;;;;;;;;;;;;;;;5045399;28;19935;-78
2023/11/27 09:04:18;;;;;;;;;;;;;;;;;;5043713;28;19960;-79
2023/11/27 09:06:45;;;;;;;;;;;;;;;;;;5043722;28;19929;-78
2023/11/27 09:09:12;;;;;;;;;;;;;;;;;;5046611;28;19928;-76
2023/11/27 09:11:38;;;;;;;;;;;;;;;;;;5052470;28;19929;-77
2023/11/27 09:14:05;;;;;;;;;;;;;;;;;;5043526;28;19924;-79
2023/11/27 09:16:32;;;;;;;;;;;;;;;;;;5039421;28;20394;-79
2023/11/27 09:18:58;;;;;;;;;;;;;;;;;;5047450;28;19929;-78
2023/11/27 09:21:25;;;;;;;;;;;;;;;;;;5047962;28;19970;-78
2023/11/27 09:23:54;;;;;;;;;;;;;;;;;;5044340;28;19947;-77
2023/11/27 09:26:20;;;;;;;;;;;;;;;;;;5044686;28;20381;-77
2023/11/27 09:28:47;;;;;;;;;;;;;;;;;;5045151;28;19928;-76
2023/11/27 09:31:13;;;;;;;;;;;;;;;;;;5041571;28;19935;-78
2023/11/27 09:33:41;;;;;;;;;;;;;;;;;;5046262;28;19925;-76
2023/11/27 09:36:13;;;;;;;;;;;;;;;;;;5048642;28;19968;-78
2023/11/27 09:38:40;;;;;;;;;;;;;;;;;;5043676;28;19929;-78
2023/11/27 09:41:07;;;;;;;;;;;;;;;;;;5047379;28;19933;-87
2023/11/27 09:43:33;;;;;;;;;;;;;;;;;;5046644;28;19924;-85
2023/11/27 09:46:01;;;;;;;;;;;;;;;;;;5036799;28;19929;-85
2023/11/27 09:48:27;;;;;;;;;;;;;;;;;;5044040;28;20377;-85
2023/11/27 09:50:54;;;;;;;;;;;;;;;;;;5055330;28;20267;-86
2023/11/27 09:53:21;;;;;;;;;;;;;;;;;;5049860;28;19936;-88
2023/11/27 09:55:49;;;;;;;;;;;;;;;;;;5053348;28;20040;-85
2023/11/27 09:58:17;;;;;;;;;;;;;;;;;;5049674;28;19970;-87
2023/11/27 10:00:43;;;;;;;;;;;;;;;;;;5041758;28;20023;-87
2023/11/27 10:03:10;;;;;;;;;;;;;;;;;;5056317;28;19999;-88
2023/11/27 10:05:37;;;;;;;;;;;;;;;;;;5044365;28;20016;-88
2023/11/27 10:08:04;;;;;;;;;;;;;;;;;;5035056;28;19931;-87
2023/11/27 10:10:31;;;;;;;;;;;;;;;;;;5045334;28;19986;-88
2023/11/27 10:12:58;;;;;;;;;;;;;;;;;;5047528;28;19925;-86
2023/11/27 10:15:26;;;;;;;;;;;;;;;;;;5050606;28;20326;-85
2023/11/27 10:17:53;;;;;;;;;;;;;;;;;;5033648;28;20017;-85
2023/11/27 10:20:19;;;;;;;;;;;;;;;;;;5059395;28;20050;-85
2023/11/27 10:22:46;;;;;;;;;;;;;;;;;;5054260;28;19964;-87
2023/11/27 10:25:14;;;;;;;;;;;;;;;;;;5054104;28;19932;-86
2023/11/27 10:27:41;;;;;;;;;;;;;;;;;;5053540;28;19940;-87
2023/11/27 10:30:07;;;;;;;;;;;;;;;;;;5048152;28;20385;-84
2023/11/27 10:32:34;;;;;;;;;;;;;;;;;;5048678;28;20015;-86
2023/11/27 10:35:00;;;;;;;;;;;;;;;;;;5035869;28;19924;-84
2023/11/27 10:37:27;;;;;;;;;;;;;;;;;;5041412;28;19944;-82
2023/11/27 10:39:53;;;;;;;;;;;;;;;;;;5046685;28;19935;-87
2023/11/27 10:42:21;;;;;;;;;;;;;;;;;;5052009;28;20393;-84
2023/11/27 10:44:50;;;;;;;;;;;;;;;;;;5062977;28;19933;-83
2023/11/27 10:47:17;;;;;;;;;;;;;;;;;;5062245;28;19931;-85
2023/11/27 10:49:43;;;;;;;;;;;;;;;;;;5053977;28;19936;-86
2023/11/27 10:52:11;;;;;;;;;;;;;;;;;;5062507;28;19929;-84
2023/11/27 10:54:38;;;;;;;;;;;;;;;;;;5060244;28;19964;-82
2023/11/27 10:57:06;;;;;;;;;;;;;;;;;;5054678;28;19924;-84
2023/11/27 10:59:33;;;;;;;;;;;;;;;;;;5057572;28;19925;-83
2023/11/27 11:02:00;;;;;;;;;;;;;;;;;;5056362;28;20054;-83
2023/11/27 11:04:27;;;;;;;;;;;;;;;;;;5052149;28;20321;-84
2023/11/27 11:06:54;;;;;;;;;;;;;;;;;;5055087;28;19925;-83
2023/11/27 11:09:24;;;;;;;;;;;;;;;;;;5056902;28;19925;-85
2023/11/27 11:11:51;;;;;;;;;;;;;;;;;;5050976;28;19971;-83
2023/11/27 11:14:19;;;;;;;;;;;;;;;;;;5053682;28;19936;-83
2023/11/27 11:16:49;;;;;;;;;;;;;;;;;;5054455;28;19925;-86
2023/11/27 11:19:16;;;;;;;;;;;;;;;;;;5051269;28;19909;-84
2023/11/27 11:21:43;;;;;;;;;;;;;;;;;;5053799;28;20357;-83
2023/11/27 11:24:09;;;;;;;;;;;;;;;;;;5054313;28;19932;-86
2023/11/27 11:26:38;;;;;;;;;;;;;;;;;;5045166;28;20438;-85
2023/11/27 11:29:14;;;;;;;;;;;;;;;;;;5045908;28;19967;-86
2023/11/27 11:31:43;;;;;;;;;;;;;;;;;;5037995;28;19928;-86
2023/11/27 11:34:10;;;;;;;;;;;;;;;;;;5037559;28;19925;-82
2023/11/27 11:36:37;;;;;;;;;;;;;;;;;;5020667;28;19929;-83
2023/11/27 11:39:06;;;;;;;;;;;;;;;;;;5028962;28;20432;-80
2023/11/27 11:41:32;;;;;;;;;;;;;;;;;;5046737;28;19925;-85
2023/11/27 11:44:00;;;;;;;;;;;;;;;;;;5040770;28;19925;-85
2023/11/27 11:46:27;;;;;;;;;;;;;;;;;;5031020;28;19925;-83
2023/11/27 11:48:55;;;;;;;;;;;;;;;;;;5024863;28;19929;-85
2023/11/27 11:51:27;;;;;;;;;;;;;;;;;;5049813;28;19960;-85
2023/11/27 11:53:53;;;;;;;;;;;;;;;;;;5040371;28;19925;-84
2023/11/27 11:56:20;;;;;;;;;;;;;;;;;;5036591;28;19956;-84
2023/11/27 11:58:46;;;;;;;;;;;;;;;;;;5038992;28;20305;-82
2023/11/27 12:01:14;;;;;;;;;;;;;;;;;;5034161;28;19925;-85
2023/11/27 12:03:46;;;;;;;;;;;;;;;;;;5052448;28;19925;-84
2023/11/27 12:06:16;;;;;;;;;;;;;;;;;;5045801;28;19933;-83
2023/11/27 12:08:45;;;;;;;;;;;;;;;;;;5052287;28;19968;-83
2023/11/27 12:11:14;;;;;;;;;;;;;;;;;;5049858;28;19932;-84
2023/11/27 12:13:50;;;;;;;;;;;;;;;;;;5055448;28;19931;-83
2023/11/27 12:16:21;;;;;;;;;;;;;;;;;;5046574;28;20035;-86
2023/11/27 12:18:49;;;;;;;;;;;;;;;;;;5046822;28;19929;-83
2023/11/27 12:21:17;;;;;;;;;;;;;;;;;;5050167;28;19925;-84
2023/11/27 12:23:43;;;;;;;;;;;;;;;;;;5051775;28;19932;-86
2023/11/27 12:26:17;;;;;;;;;;;;;;;;;;5032650;28;19931;-85
2023/11/27 12:28:45;;;;;;;;;;;;;;;;;;5062651;28;19975;-84
2023/11/27 12:31:14;;;;;;;;;;;;;;;;;;5044340;28;20031;-85
2023/11/27 12:33:40;;;;;;;;;;;;;;;;;;5049682;28;19925;-85
2023/11/27 12:36:07;;;;;;;;;;;;;;;;;;5049697;28;19924;-85
2023/11/27 12:38:40;;;;;;;;;;;;;;;;;;5047819;28;19925;-84
2023/11/27 12:41:09;;;;;;;;;;;;;;;;;;5044580;28;19925;-85
2023/11/27 12:43:36;;;;;;;;;;;;;;;;;;5057653;28;19975;-84
2023/11/27 12:46:02;;;;;;;;;;;;;;;;;;5049471;28;19929;-84
2023/11/27 12:48:30;;;;;;;;;;;;;;;;;;5044360;28;19992;-83
2023/11/27 12:50:59;;;;;;;;;;;;;;;;;;5043317;28;19931;-84
2023/11/27 12:53:25;;;;;;;;;;;;;;;;;;5054889;28;20011;-86
2023/11/27 12:55:52;;;;;;;;;;;;;;;;;;5041693;28;20015;-82
2023/11/27 12:58:20;;;;;;;;;;;;;;;;;;5038719;28;20386;-82
2023/11/27 13:00:47;;;;;;;;;;;;;;;;;;5040053;28;19925;-82
2023/11/27 13:03:14;;;;;;;;;;;;;;;;;;5027488;28;20346;-83
2023/11/27 13:05:41;;;;;;;;;;;;;;;;;;5032450;28;19925;-84
2023/11/27 13:08:08;;;;;;;;;;;;;;;;;;5046741;28;20443;-83
2023/11/27 13:10:42;;;;;;;;;;;;;;;;;;5033963;28;19932;-84
2023/11/27 13:13:08;;;;;;;;;;;;;;;;;;5035911;28;19960;-82
2023/11/27 13:15:35;;;;;;;;;;;;;;;;;;5038102;28;19932;-84
2023/11/27 13:18:03;;;;;;;;;;;;;;;;;;5050536;28;20370;-84
2023/11/27 13:20:32;;;;;;;;;;;;;;;;;;5043400;28;19929;-86
2023/11/27 13:23:01;;;;;;;;;;;;;;;;;;5046606;28;19972;-84
2023/11/27 13:25:34;;;;;;;;;;;;;;;;;;5055506;28;19924;-84
2023/11/27 13:28:02;;;;;;;;;;;;;;;;;;5055960;28;19929;-85
2023/11/27 13:30:29;;;;;;;;;;;;;;;;;;5044668;28;20374;-84
2023/11/27 13:32:59;;;;;;;;;;;;;;;;;;5052486;28;19924;-85
2023/11/27 13:35:33;;;;;;;;;;;;;;;;;;5057943;28;19936;-85
2023/11/27 13:38:04;;;;;;;;;;;;;;;;;;5037494;28;19939;-85
2023/11/27 13:40:35;;;;;;;;;;;;;;;;;;5039616;28;19929;-84
2023/11/27 13:43:08;;;;;;;;;;;;;;;;;;5049075;28;19925;-85
2023/11/27 13:45:35;;;;;;;;;;;;;;;;;;5041284;28;19929;-85
2023/11/27 13:48:02;;;;;;;;;;;;;;;;;;5052393;28;19949;-85
2023/11/27 13:50:36;;;;;;;;;;;;;;;;;;5053916;28;19939;-85
2023/11/27 13:53:03;;;;;;;;;;;;;;;;;;5049479;28;20006;-85
2023/11/27 13:55:34;;;;;;;;;;;;;;;;;;5036458;28;19929;-86
2023/11/27 13:58:01;;;;;;;;;;;;;;;;;;5051708;28;19932;-86
2023/11/27 14:00:28;;;;;;;;;;;;;;;;;;5053470;28;19925;-85
2023/11/27 14:02:55;;;;;;;;;;;;;;;;;;5045329;28;19925;-86
2023/11/27 14:05:36;;;;;;;;;;;;;;;;;;5037876;28;20373;-86
2023/11/27 14:08:09;;;;;;;;;;;;;;;;;;5048961;28;22139;-87
2023/11/27 14:10:54;;;;;;;;;;;;;;;;;;5057467;28;19925;-86
2023/11/27 14:13:23;;;;;;;;;;;;;;;;;;5046163;28;20028;-87
2023/11/27 14:15:50;;;;;;;;;;;;;;;;;;5059600;28;19924;-86
2023/11/27 14:23:47;;;;;;;;;;;;;;;;;;5057735;28;20011;-85
2023/11/27 14:31:17;;;;;;;;;;;;;;;;;;5049076;28;20295;-84
2023/11/27 14:33:48;;;;;;;;;;;;;;;;;;5045879;28;19990;-83
2023/11/27 14:36:15;;;;;;;;;;;;;;;;;;5049207;28;19924;-84
2023/11/27 14:38:42;;;;;;;;;;;;;;;;;;5041546;28;19931;-84
2023/11/27 14:41:08;;;;;;;;;;;;;;;;;;5042439;28;20450;-84
2023/11/27 14:43:35;;;;;;;;;;;;;;;;;;5037535;28;19937;-84
2023/11/27 14:46:01;;;;;;;;;;;;;;;;;;5047927;28;20286;-85
2023/11/27 14:48:32;;;;;;;;;;;;;;;;;;5038599;28;20369;-85
2023/11/27 14:50:59;;;;;;;;;;;;;;;;;;5054408;28;20304;-84
2023/11/27 14:53:26;;;;;;;;;;;;;;;;;;5057604;28;20365;-84
2023/11/27 14:55:54;;;;;;;;;;;;;;;;;;5053168;28;19925;-85
2023/11/27 14:58:22;;;;;;;;;;;;;;;;;;5038715;28;19975;-85
2023/11/27 15:00:51;;;;;;;;;;;;;;;;;;5047242;28;19992;-84
2023/11/27 15:03:25;;;;;;;;;;;;;;;;;;5050532;28;19948;-84
2023/11/27 15:05:52;;;;;;;;;;;;;;;;;;5054134;28;19929;-85
2023/11/27 15:08:22;;;;;;;;;;;;;;;;;;5037997;28;20362;-83
2023/11/27 15:10:49;;;;;;;;;;;;;;;;;;5046225;28;19936;-85
2023/11/27 15:13:15;;;;;;;;;;;;;;;;;;5035600;28;20312;-84
2023/11/27 15:15:42;;;;;;;;;;;;;;;;;;5050833;28;19932;-85
2023/11/27 15:18:09;;;;;;;;;;;;;;;;;;5051704;28;19968;-83
2023/11/27 15:20:36;;;;;;;;;;;;;;;;;;5055516;28;20388;-85
2023/11/27 15:23:03;;;;;;;;;;;;;;;;;;5042008;28;19947;-84
2023/11/27 15:25:32;;;;;;;;;;;;;;;;;;5045330;28;20385;-83
2023/11/27 15:27:59;;;;;;;;;;;;;;;;;;5044384;28;19965;-83
2023/11/27 15:30:28;;;;;;;;;;;;;;;;;;5055970;28;19925;-83
2023/11/27 15:32:57;;;;;;;;;;;;;;;;;;5041910;28;20282;-85
2023/11/27 15:35:25;;;;;;;;;;;;;;;;;;5050894;28;19934;-84
2023/11/27 15:37:52;;;;;;;;;;;;;;;;;;5056669;28;20370;-84
2023/11/27 15:40:23;;;;;;;;;;;;;;;;;;5048906;28;19939;-84
2023/11/27 15:42:51;;;;;;;;;;;;;;;;;;5030414;28;19955;-84
2023/11/27 15:45:21;;;;;;;;;;;;;;;;;;5053443;28;20377;-85
2023/11/27 15:47:48;;;;;;;;;;;;;;;;;;5034131;28;20456;-85
2023/11/27 15:50:14;;;;;;;;;;;;;;;;;;5039327;28;19935;-84
2023/11/27 15:52:45;;;;;;;;;;;;;;;;;;5049024;28;19925;-83
2023/11/27 15:55:12;;;;;;;;;;;;;;;;;;5053060;28;19921;-85
2023/11/27 15:57:39;;;;;;;;;;;;;;;;;;5029724;28;19956;-84
2023/11/27 16:00:07;;;;;;;;;;;;;;;;;;5041032;28;19934;-84
2023/11/27 16:02:37;;;;;;;;;;;;;;;;;;5044937;28;19935;-85
2023/11/27 16:05:07;;;;;;;;;;;;;;;;;;5043941;28;20389;-84
2023/11/27 16:07:35;;;;;;;;;;;;;;;;;;5052201;28;19925;-84
2023/11/27 16:10:04;;;;;;;;;;;;;;;;;;5052476;28;20390;-86
2023/11/27 16:12:30;;;;;;;;;;;;;;;;;;5054092;28;19925;-85
2023/11/27 16:14:59;;;;;;;;;;;;;;;;;;5050295;28;19929;-84
2023/11/27 16:17:37;;;;;;;;;;;;;;;;;;5054736;28;19925;-85
2023/11/27 16:20:19;;;;;;;;;;;;;;;;;;5047502;28;19929;-85
2023/11/27 16:22:49;;;;;;;;;;;;;;;;;;5043464;28;20344;-84
2023/11/27 16:25:16;;;;;;;;;;;;;;;;;;5045538;28;20459;-85
2023/11/27 16:27:55;;;;;;;;;;;;;;;;;;5045963;28;19928;-87
2023/11/27 16:30:22;;;;;;;;;;;;;;;;;;5047071;28;19976;-86
2023/11/27 16:32:52;;;;;;;;;;;;;;;;;;5042800;28;19999;-87
2023/11/27 16:35:28;;;;;;;;;;;;;;;;;;5045896;28;19979;-88
2023/11/27 16:37:55;;;;;;;;;;;;;;;;;;5051802;28;19925;-85
2023/11/27 16:40:23;;;;;;;;;;;;;;;;;;5056647;28;19925;-86
2023/11/27 16:42:50;;;;;;;;;;;;;;;;;;5042508;28;19925;-85
2023/11/27 16:45:22;;;;;;;;;;;;;;;;;;5048434;28;20278;-86
2023/11/27 16:47:57;;;;;;;;;;;;;;;;;;5037900;28;20304;-85
2023/11/27 16:50:33;;;;;;;;;;;;;;;;;;5049062;28;19936;-88
2023/11/27 16:53:03;;;;;;;;;;;;;;;;;;5036191;28;19925;-88
2023/11/27 16:55:31;;;;;;;;;;;;;;;;;;5035321;28;19929;-86
2023/11/27 16:58:04;;;;;;;;;;;;;;;;;;5052728;28;19929;-86